Time;durP1;ratioP1;P1;durP2;ratioP2;P2;SDS_P1;SDS_P2;PMS_P1;PMS_P2;Temp;Humidity;BMP_temperature;BMP_pressure;BME280_temperature;BME280_humidity;BME280_pressure;Samples;Min_cycle;Max_cycle;Signal;HPM_P1;HPM_P2
2022/05/28 03:36:21;;;;;;;;;;;17.40;61.90;;;;;;4767249;29;19926;-73
2022/05/28 03:38:47;;;;;;;;;;;17.50;62.10;;;;;;4758242;30;19922;-73
2022/05/28 03:41:12;;;;;;;;;;;17.50;62.20;;;;;;4773974;30;19928;-73
2022/05/28 03:43:38;;;;;;;;;;;17.60;62.60;;;;;;4743556;30;19933;-73
2022/05/28 03:46:04;;;;;;;;;;;17.70;62.40;;;;;;4772869;30;20341;-77
2022/05/28 03:48:31;;;;;;;;;;;17.80;62.60;;;;;;4757603;30;19972;-74
2022/05/28 03:50:57;;;;;;;;;;;17.80;61.90;;;;;;4773985;30;19925;-73
2022/05/28 03:53:22;;;;;;;;;;;17.90;61.90;;;;;;4773773;30;20238;-75
2022/05/28 03:55:48;;;;;;;;;;;18.00;61.90;;;;;;4758154;30;20261;-74
2022/05/28 03:58:14;;;;;;;;;;;18.00;62.20;;;;;;4774000;30;20012;-74
2022/05/28 04:00:40;;;;;;;;;;;18.10;61.60;;;;;;4758184;30;19955;-73
2022/05/28 04:03:06;;;;;;;;;;;18.20;61.50;;;;;;4773782;30;19952;-77
2022/05/28 04:05:44;;;;;;;;;;;18.30;61.60;;;;;;4773487;30;20329;-75
2022/05/28 04:08:09;;;;;;;;;;;18.40;61.50;;;;;;4774256;30;20041;-74
2022/05/28 04:10:35;;;;;;;;;;;18.40;61.20;;;;;;4773377;30;20027;-74
2022/05/28 04:13:00;;;;;;;;;;;18.40;61.30;;;;;;4757660;30;19941;-74
2022/05/28 04:15:28;;;;;;;;;;;18.40;58.20;;;;;;4772963;30;20250;-77
2022/05/28 04:17:54;;;;;;;;;;;18.50;61.20;;;;;;4773278;30;19926;-73
2022/05/28 04:20:19;;;;;;;;;;;18.50;61.20;;;;;;4773377;30;19934;-76
2022/05/28 04:22:45;;;;;;;;;;;18.60;61.20;;;;;;4745248;30;20270;-79
2022/05/28 04:25:11;;;;;;;;;;;18.60;61.10;;;;;;4755366;30;20326;-71
2022/05/28 04:27:39;;;;;;;;;;;18.60;60.70;;;;;;4755014;30;20013;-76
2022/05/28 04:30:04;;;;;;;;;;;18.70;60.80;;;;;;4739882;30;19922;-75
2022/05/28 04:32:30;;;;;;;;;;;18.70;60.90;;;;;;4758560;30;19991;-75
2022/05/28 04:34:56;;;;;;;;;;;18.70;60.70;;;;;;4757546;30;19926;-73
2022/05/28 04:37:22;;;;;;;;;;;18.80;60.70;;;;;;4773138;30;19958;-73
2022/05/28 04:39:47;;;;;;;;;;;18.70;59.60;;;;;;4757575;30;20054;-75
2022/05/28 04:42:13;;;;;;;;;;;18.80;59.80;;;;;;4773600;30;19926;-73
2022/05/28 04:44:38;;;;;;;;;;;18.80;59.50;;;;;;4773278;30;19926;-73
2022/05/28 04:47:04;;;;;;;;;;;18.70;57.50;;;;;;4772214;30;20254;-77
2022/05/28 04:49:30;;;;;;;;;;;18.70;57.00;;;;;;4756853;30;19926;-78
2022/05/28 04:51:55;;;;;;;;;;;18.60;56.70;;;;;;4772784;30;19925;-78
2022/05/28 04:54:21;;;;;;;;;;;18.60;57.40;;;;;;4772780;30;19935;-74
2022/05/28 04:56:46;;;;;;;;;;;18.60;57.50;;;;;;4741566;30;20045;-77
2022/05/28 04:59:28;;;;;;;;;;;18.50;57.40;;;;;;4742032;30;19985;-77
2022/05/28 05:02:02;;;;;;;;;;;18.50;55.80;;;;;;4756229;30;19928;-77
2022/05/28 05:04:30;;;;;;;;;;;18.40;56.10;;;;;;4742246;30;20258;-78
2022/05/28 05:06:58;;;;;;;;;;;18.30;56.30;;;;;;4756325;30;19925;-78
2022/05/28 05:09:29;;;;;;;;;;;18.20;55.70;;;;;;4756375;30;19926;-77
2022/05/28 05:11:58;;;;;;;;;;;18.10;56.90;;;;;;4757084;30;19932;-78
2022/05/28 05:14:24;;;;;;;;;;;18.10;56.70;;;;;;4756829;30;20012;-77
2022/05/28 05:16:49;;;;;;;;;;;18.10;58.20;;;;;;4771204;30;20004;-77
2022/05/28 05:19:20;;;;;;;;;;;18.10;58.60;;;;;;4773197;30;20291;-79
2022/05/28 05:21:45;;;;;;;;;;;18.10;58.80;;;;;;4742374;30;19933;-78
2022/05/28 05:24:14;;;;;;;;;;;18.10;58.90;;;;;;4741829;30;19990;-77
2022/05/28 05:26:39;;;;;;;;;;;18.10;59.10;;;;;;4772154;30;19969;-77
2022/05/28 05:29:05;;;;;;;;;;;18.10;59.30;;;;;;4771985;30;19940;-76
2022/05/28 05:31:30;;;;;;;;;;;18.10;59.60;;;;;;4755672;30;20039;-78
2022/05/28 05:33:56;;;;;;;;;;;18.20;59.90;;;;;;4741661;30;20281;-76
2022/05/28 05:36:21;;;;;;;;;;;18.20;60.50;;;;;;4764436;30;19934;-78
2022/05/28 05:38:47;;;;;;;;;;;18.20;60.70;;;;;;4754246;30;19933;-77
2022/05/28 05:41:12;;;;;;;;;;;18.20;61.00;;;;;;4753765;30;19922;-77
2022/05/28 05:43:38;;;;;;;;;;;18.10;59.40;;;;;;4738244;30;19922;-78
2022/05/28 05:46:08;;;;;;;;;;;18.10;60.40;;;;;;4738866;30;19922;-78
2022/05/28 05:48:34;;;;;;;;;;;18.20;60.50;;;;;;4723869;30;20346;-76
2022/05/28 05:51:10;;;;;;;;;;;18.20;60.60;;;;;;4738882;30;19933;-84
2022/05/28 05:53:36;;;;;;;;;;;18.20;60.80;;;;;;4754144;30;20403;-72
2022/05/28 05:56:02;;;;;;;;;;;18.10;57.90;;;;;;4754534;30;19921;-76
2022/05/28 05:58:27;;;;;;;;;;;18.10;60.50;;;;;;4738800;30;19922;-76
2022/05/28 06:00:53;;;;;;;;;;;18.10;60.70;;;;;;4738454;30;19922;-77
2022/05/28 06:03:19;;;;;;;;;;;18.10;61.00;;;;;;4751443;30;19930;-81
2022/05/28 06:05:45;;;;;;;;;;;18.10;61.00;;;;;;4736459;30;19953;-77
2022/05/28 06:08:11;;;;;;;;;;;18.10;61.00;;;;;;4706752;30;19922;-77
2022/05/28 06:10:36;;;;;;;;;;;18.00;58.80;;;;;;4709353;30;19933;-78
2022/05/28 06:13:02;;;;;;;;;;;18.10;60.30;;;;;;4724430;30;19922;-78
2022/05/28 06:15:27;;;;;;;;;;;18.10;60.70;;;;;;4707310;30;19929;-76
2022/05/28 06:17:53;;;;;;;;;;;18.10;60.90;;;;;;4740115;30;19922;-77
2022/05/28 06:20:19;;;;;;;;;;;18.10;61.00;;;;;;4709620;30;19962;-76
2022/05/28 06:22:47;;;;;;;;;;;18.10;61.00;;;;;;4736994;30;19926;-78
2022/05/28 06:25:15;;;;;;;;;;;18.10;61.10;;;;;;4724593;30;20400;-78
2022/05/28 06:27:46;;;;;;;;;;;18.10;61.20;;;;;;4724404;30;20361;-78
2022/05/28 06:30:12;;;;;;;;;;;18.10;61.30;;;;;;4724245;30;19926;-79
2022/05/28 06:32:37;;;;;;;;;;;18.10;61.30;;;;;;4709500;30;19957;-79
2022/05/28 06:35:03;;;;;;;;;;;18.20;61.50;;;;;;4724209;30;19922;-79
2022/05/28 06:37:29;;;;;;;;;;;18.10;61.40;;;;;;4744142;30;20012;-78
2022/05/28 06:39:54;;;;;;;;;;;18.10;61.20;;;;;;4744472;30;19926;-78
2022/05/28 06:42:20;;;;;;;;;;;18.20;60.70;;;;;;4744452;30;19921;-78
2022/05/28 06:44:46;;;;;;;;;;;18.10;59.20;;;;;;4744963;30;19921;-79
2022/05/28 06:47:11;;;;;;;;;;;18.00;60.80;;;;;;4775082;30;20250;-77
2022/05/28 06:49:37;;;;;;;;;;;18.10;60.00;;;;;;4758654;30;19988;-77
2022/05/28 06:52:03;;;;;;;;;;;18.00;59.30;;;;;;4759075;30;19922;-78
2022/05/28 06:54:28;;;;;;;;;;;18.00;60.50;;;;;;4775089;30;19932;-77
2022/05/28 06:56:54;;;;;;;;;;;18.00;60.80;;;;;;4774464;30;19958;-80
2022/05/28 06:59:19;;;;;;;;;;;18.00;60.10;;;;;;4758972;30;19928;-78
2022/05/28 07:01:45;;;;;;;;;;;18.00;60.00;;;;;;4773578;30;19925;-77
2022/05/28 07:04:11;;;;;;;;;;;18.00;60.90;;;;;;4743823;30;20338;-78
2022/05/28 07:06:36;;;;;;;;;;;18.00;61.00;;;;;;4744427;30;20061;-76
2022/05/28 07:09:05;;;;;;;;;;;18.00;61.60;;;;;;4774282;30;19948;-78
2022/05/28 07:11:30;;;;;;;;;;;18.00;61.60;;;;;;4759306;30;19933;-79
2022/05/28 07:13:56;;;;;;;;;;;18.10;62.00;;;;;;4758533;30;19922;-77
2022/05/28 07:16:24;;;;;;;;;;;18.10;62.20;;;;;;4774052;30;19922;-77
2022/05/28 07:18:53;;;;;;;;;;;18.10;62.20;;;;;;4759263;30;20299;-77
2022/05/28 07:21:22;;;;;;;;;;;18.20;62.40;;;;;;4757580;30;20029;-79
2022/05/28 07:23:47;;;;;;;;;;;18.20;62.40;;;;;;4773969;30;19932;-78
2022/05/28 07:26:17;;;;;;;;;;;18.20;62.30;;;;;;4774035;30;20004;-78
2022/05/28 07:28:43;;;;;;;;;;;18.30;62.20;;;;;;4758455;30;20304;-79
2022/05/28 07:31:15;;;;;;;;;;;18.30;62.20;;;;;;4759271;30;19922;-78
2022/05/28 07:33:45;;;;;;;;;;;18.30;62.10;;;;;;4758407;30;19926;-77
2022/05/28 07:36:12;;;;;;;;;;;18.40;62.20;;;;;;4742405;30;19961;-76
2022/05/28 07:38:38;;;;;;;;;;;18.40;62.40;;;;;;4773234;30;19926;-76
2022/05/28 07:41:12;;;;;;;;;;;18.40;62.20;;;;;;4758320;30;19932;-75
2022/05/28 07:44:23;;;;;;;;;;;18.50;61.80;;;;;;4756420;30;19922;-78
2022/05/28 07:46:59;;;;;;;;;;;18.50;61.40;;;;;;4715941;30;19957;-78
2022/05/28 07:49:55;;;;;;;;;;;18.50;61.30;;;;;;4741021;30;19954;-81
2022/05/28 07:52:38;;;;;;;;;;;18.40;61.50;;;;;;4732178;30;19926;-78
2022/05/28 07:55:13;;;;;;;;;;;18.40;61.40;;;;;;4754933;30;20447;-78
2022/05/28 07:57:48;;;;;;;;;;;18.40;61.50;;;;;;4735937;30;20351;-79
2022/05/28 08:00:28;;;;;;;;;;;18.40;61.60;;;;;;4720538;30;19933;-78
2022/05/28 08:02:58;;;;;;;;;;;18.40;62.00;;;;;;4705963;30;19933;-78
2022/05/28 08:05:47;;;;;;;;;;;18.40;62.10;;;;;;4735044;30;19926;-77
2022/05/28 08:08:26;;;;;;;;;;;18.40;61.80;;;;;;4705548;30;19922;-79
2022/05/28 08:15:02;;;;;;;;;;;18.40;62.10;;;;;;4700221;30;19937;-78
2022/05/28 08:24:29;;;;;;;;;;;18.50;62.00;;;;;;4743660;30;19969;-77
2022/05/28 09:03:17;;;;;;;;;;;18.80;65.10;;;;;;4702449;30;19927;-78
2022/05/28 09:05:57;;;;;;;;;;;18.90;64.50;;;;;;4719196;30;19926;-79
2022/05/28 09:08:34;;;;;;;;;;;18.90;64.50;;;;;;4739626;30;19939;-78
2022/05/28 09:11:07;;;;;;;;;;;19.00;65.80;;;;;;4740776;30;20354;-79
2022/05/28 09:13:38;;;;;;;;;;;18.90;65.00;;;;;;4742330;30;19934;-77
2022/05/28 09:16:04;;;;;;;;;;;18.90;65.10;;;;;;4733767;30;19922;-75
2022/05/28 09:18:37;;;;;;;;;;;18.90;65.00;;;;;;4756432;30;19921;-78
2022/05/28 09:21:04;;;;;;;;;;;19.00;64.10;;;;;;4770840;30;19933;-70
2022/05/28 09:23:37;;;;;;;;;;;18.90;63.90;;;;;;4772435;30;19932;-72
2022/05/28 09:26:05;;;;;;;;;;;18.90;64.00;;;;;;4772011;30;20436;-73
2022/05/28 09:28:37;;;;;;;;;;;18.90;63.40;;;;;;4756168;30;19921;-73
2022/05/28 09:31:02;;;;;;;;;;;19.00;61.90;;;;;;4756493;30;19991;-74
2022/05/28 09:33:33;;;;;;;;;;;18.90;61.70;;;;;;4753695;30;19926;-73
2022/05/28 09:36:08;;;;;;;;;;;18.90;60.50;;;;;;4763461;30;20021;-77
2022/05/28 09:38:52;;;;;;;;;;;18.90;61.20;;;;;;4741344;30;19999;-77
2022/05/28 09:41:20;;;;;;;;;;;18.90;61.20;;;;;;4775252;30;19979;-73
2022/05/28 09:43:46;;;;;;;;;;;18.90;61.90;;;;;;4764102;30;19922;-78
2022/05/28 09:46:36;;;;;;;;;;;18.90;61.30;;;;;;4736976;30;19933;-77
2022/05/28 09:49:01;;;;;;;;;;;18.90;61.60;;;;;;4759901;30;20342;-77
2022/05/28 09:51:31;;;;;;;;;;;18.90;61.70;;;;;;4775670;30;19922;-76
2022/05/28 09:56:47;;;;;;;;;;;18.90;61.80;;;;;;4759713;30;19922;-80
2022/05/28 09:59:18;;;;;;;;;;;18.90;62.20;;;;;;4775454;30;19986;-77
2022/05/28 10:02:14;;;;;;;;;;;18.90;62.40;;;;;;4759286;30;19922;-77
2022/05/28 10:05:08;;;;;;;;;;;19.00;62.30;;;;;;4777613;30;20004;-77
2022/05/28 10:10:54;;;;;;;;;;;19.00;62.40;;;;;;4736987;30;19975;-77
2022/05/28 10:13:33;;;;;;;;;;;19.10;62.50;;;;;;4694436;30;19946;-77
2022/05/28 10:16:23;;;;;;;;;;;19.00;62.30;;;;;;4709553;30;19956;-77
2022/05/28 10:22:24;;;;;;;;;;;19.00;62.40;;;;;;4706503;30;19954;-77
2022/05/28 10:24:58;;;;;;;;;;;19.00;62.40;;;;;;4684792;30;19923;-77
2022/05/28 10:31:12;;;;;;;;;;;19.00;62.40;;;;;;4688720;30;19931;-80
2022/05/28 10:33:44;;;;;;;;;;;19.00;62.40;;;;;;4711430;30;19929;-77
2022/05/28 10:36:13;;;;;;;;;;;19.00;62.40;;;;;;4755417;30;20409;-77
2022/05/28 10:38:39;;;;;;;;;;;19.00;62.50;;;;;;4741410;30;19932;-78
2022/05/28 10:41:32;;;;;;;;;;;19.00;63.20;;;;;;4766012;30;19930;-79
2022/05/28 10:43:58;;;;;;;;;;;19.00;62.50;;;;;;4758758;30;20303;-74
2022/05/28 10:46:30;;;;;;;;;;;19.00;62.70;;;;;;4774399;30;20000;-74
2022/05/28 10:49:15;;;;;;;;;;;19.10;62.60;;;;;;4773988;30;19952;-78
2022/05/28 10:52:00;;;;;;;;;;;19.10;62.40;;;;;;4773060;30;19922;-76
2022/05/28 10:54:45;;;;;;;;;;;19.00;62.20;;;;;;4757856;30;19929;-73
2022/05/28 10:57:33;;;;;;;;;;;19.00;62.20;;;;;;4740276;30;20418;-81
2022/05/28 11:00:03;;;;;;;;;;;19.00;62.00;;;;;;4756688;30;20334;-77
2022/05/28 11:02:46;;;;;;;;;;;19.00;62.10;;;;;;4773490;30;20294;-83
2022/05/28 11:05:15;;;;;;;;;;;19.00;62.20;;;;;;4763008;30;19921;-77
2022/05/28 11:07:51;;;;;;;;;;;19.00;62.30;;;;;;4776918;30;20234;-78
2022/05/28 11:10:19;;;;;;;;;;;18.90;62.20;;;;;;4761281;30;19926;-73
2022/05/28 11:12:53;;;;;;;;;;;18.90;62.20;;;;;;4785573;30;19926;-71
2022/05/28 11:15:36;;;;;;;;;;;19.00;61.20;;;;;;4751308;30;20013;-71
2022/05/28 11:18:07;;;;;;;;;;;19.00;61.00;;;;;;4768642;30;20017;-77
2022/05/28 11:20:58;;;;;;;;;;;18.90;60.30;;;;;;4772815;30;20050;-76
2022/05/28 11:23:30;;;;;;;;;;;18.90;60.20;;;;;;4749287;30;19957;-76
2022/05/28 11:26:03;;;;;;;;;;;18.90;60.30;;;;;;4755993;30;20293;-77
2022/05/28 11:28:32;;;;;;;;;;;18.90;60.30;;;;;;4758339;30;19960;-77
2022/05/28 11:31:02;;;;;;;;;;;18.90;60.40;;;;;;4773587;30;19929;-77
2022/05/28 11:33:34;;;;;;;;;;;18.90;60.40;;;;;;4773415;30;20370;-78
2022/05/28 11:54:47;;;;;;;;;;;18.90;61.00;;;;;;4740879;30;19946;-78
2022/05/28 11:57:20;;;;;;;;;;;18.90;61.10;;;;;;4739262;30;19934;-81
2022/05/28 11:59:52;;;;;;;;;;;18.90;60.70;;;;;;4727560;30;19922;-78
2022/05/28 12:02:38;;;;;;;;;;;18.90;60.10;;;;;;4767728;30;19933;-74
2022/05/28 12:05:42;;;;;;;;;;;18.80;59.80;;;;;;4768890;30;19952;-77
2022/05/28 12:08:17;;;;;;;;;;;18.90;59.80;;;;;;4770574;30;20025;-78
2022/05/28 12:10:53;;;;;;;;;;;18.90;59.80;;;;;;4754446;30;19943;-77
2022/05/28 12:13:32;;;;;;;;;;;18.80;59.70;;;;;;4742733;30;19933;-77
2022/05/28 12:16:21;;;;;;;;;;;18.90;59.70;;;;;;4756928;30;20009;-78
2022/05/28 12:18:57;;;;;;;;;;;18.90;59.80;;;;;;4756762;30;19926;-77
2022/05/28 12:21:29;;;;;;;;;;;18.90;59.80;;;;;;4758489;30;20408;-78
2022/05/28 12:24:09;;;;;;;;;;;18.90;59.90;;;;;;4757749;30;20249;-70
2022/05/28 12:26:53;;;;;;;;;;;18.90;59.80;;;;;;4772841;30;20547;-77
2022/05/28 12:29:26;;;;;;;;;;;18.90;59.60;;;;;;4774998;30;19921;-79
2022/05/28 12:31:52;;;;;;;;;;;19.00;59.80;;;;;;4776338;30;19922;-77
2022/05/28 12:34:23;;;;;;;;;;;18.90;59.80;;;;;;4741921;30;19922;-77
2022/05/28 12:36:51;;;;;;;;;;;18.90;59.90;;;;;;4757140;30;19928;-78
2022/05/28 12:39:22;;;;;;;;;;;18.90;59.90;;;;;;4756562;30;20016;-77
2022/05/28 12:41:58;;;;;;;;;;;18.90;60.00;;;;;;4772713;30;19933;-78
2022/05/28 12:44:25;;;;;;;;;;;18.90;60.00;;;;;;4773052;30;20258;-79
2022/05/28 12:46:54;;;;;;;;;;;18.90;60.00;;;;;;4757058;30;19933;-77
2022/05/28 12:49:22;;;;;;;;;;;19.00;60.10;;;;;;4756574;30;19921;-78
2022/05/28 12:52:03;;;;;;;;;;;19.00;60.10;;;;;;4757009;30;19922;-76
2022/05/28 12:54:33;;;;;;;;;;;19.00;60.10;;;;;;4774863;29;19948;-77
2022/05/28 12:57:07;;;;;;;;;;;19.00;60.10;;;;;;4757152;30;20273;-77
2022/05/28 12:59:34;;;;;;;;;;;19.00;60.20;;;;;;4739456;30;19973;-78
2022/05/28 13:02:08;;;;;;;;;;;18.90;60.10;;;;;;4753141;30;20030;-78
2022/05/28 13:04:42;;;;;;;;;;;19.00;60.10;;;;;;4756632;30;19921;-77
2022/05/28 13:07:20;;;;;;;;;;;19.00;60.10;;;;;;4738881;30;19965;-77
2022/05/28 13:09:46;;;;;;;;;;;19.00;60.20;;;;;;4739066;30;19930;-77
2022/05/28 13:12:22;;;;;;;;;;;19.00;60.20;;;;;;4769778;30;19922;-77
2022/05/28 13:15:03;;;;;;;;;;;19.00;60.20;;;;;;4756765;30;20389;-80
2022/05/28 13:17:38;;;;;;;;;;;19.00;60.10;;;;;;4758383;30;19930;-76
2022/05/28 13:20:06;;;;;;;;;;;19.00;60.20;;;;;;4736874;30;19922;-78
2022/05/28 13:22:38;;;;;;;;;;;19.00;60.30;;;;;;4749641;30;19922;-73
2022/05/28 13:25:26;;;;;;;;;;;19.00;60.10;;;;;;4755854;30;20376;-77
2022/05/28 13:28:22;;;;;;;;;;;19.00;59.90;;;;;;4742527;30;19933;-77
2022/05/28 13:30:58;;;;;;;;;;;19.00;59.90;;;;;;4754736;30;19926;-78
2022/05/28 13:33:37;;;;;;;;;;;19.00;59.90;;;;;;4754042;30;19921;-79
2022/05/28 13:36:09;;;;;;;;;;;19.00;59.90;;;;;;4754346;30;19922;-80
2022/05/28 13:38:45;;;;;;;;;;;19.00;60.10;;;;;;4767912;30;19929;-75
2022/05/28 13:41:13;;;;;;;;;;;19.00;60.20;;;;;;4756165;30;19962;-75
2022/05/28 13:43:53;;;;;;;;;;;19.00;60.30;;;;;;4756616;30;20374;-75
2022/05/28 13:46:18;;;;;;;;;;;18.90;60.30;;;;;;4750857;30;19952;-75
2022/05/28 13:48:46;;;;;;;;;;;18.90;60.40;;;;;;4756090;30;19933;-75
2022/05/28 13:51:13;;;;;;;;;;;19.00;60.50;;;;;;4753395;30;19926;-75
2022/05/28 13:53:40;;;;;;;;;;;19.00;60.90;;;;;;4769650;30;20004;-77
2022/05/28 13:56:06;;;;;;;;;;;18.90;61.20;;;;;;4743388;30;19970;-79
2022/05/28 13:58:36;;;;;;;;;;;19.00;61.50;;;;;;4755628;30;19922;-75
2022/05/28 14:01:07;;;;;;;;;;;18.90;61.60;;;;;;4770910;30;19926;-73
2022/05/28 14:03:33;;;;;;;;;;;19.00;61.40;;;;;;4771836;30;19939;-75
2022/05/28 14:06:00;;;;;;;;;;;18.90;61.50;;;;;;4771470;30;19922;-72
2022/05/28 14:08:28;;;;;;;;;;;19.00;61.10;;;;;;4789997;30;19929;-72
2022/05/28 14:11:20;;;;;;;;;;;19.00;61.50;;;;;;4758851;30;19925;-73
2022/05/28 14:13:48;;;;;;;;;;;19.00;60.80;;;;;;4766531;30;19986;-75
2022/05/28 14:16:25;;;;;;;;;;;18.90;60.50;;;;;;4754047;30;20030;-76
2022/05/28 14:18:51;;;;;;;;;;;18.90;59.80;;;;;;4771623;30;19953;-75
2022/05/28 14:21:19;;;;;;;;;;;18.90;59.00;;;;;;4772047;30;19926;-75
2022/05/28 14:23:46;;;;;;;;;;;18.90;58.50;;;;;;4756640;30;19938;-75
2022/05/28 14:26:15;;;;;;;;;;;18.80;56.30;;;;;;4756616;30;20338;-77
2022/05/28 14:28:42;;;;;;;;;;;18.70;56.90;;;;;;4756225;30;19926;-76
2022/05/28 14:31:10;;;;;;;;;;;18.70;56.70;;;;;;4772869;30;19930;-81
2022/05/28 14:33:40;;;;;;;;;;;18.60;55.90;;;;;;4773730;30;19929;-74
2022/05/28 14:36:10;;;;;;;;;;;18.60;55.80;;;;;;4773681;30;19971;-78
2022/05/28 14:39:05;;;;;;;;;;;18.50;56.00;;;;;;4757840;30;19930;-77
2022/05/28 14:45:38;;;;;;;;;;;18.40;55.70;;;;;;4632876;30;20367;-76
2022/05/28 14:48:17;;;;;;;;;;;18.40;55.50;;;;;;4672495;30;20368;-77
2022/05/28 14:50:44;;;;;;;;;;;18.30;55.60;;;;;;4733525;30;20258;-76
2022/05/28 14:53:24;;;;;;;;;;;18.40;56.50;;;;;;4757171;30;19933;-76
2022/05/28 14:55:49;;;;;;;;;;;18.40;56.50;;;;;;4756765;30;19980;-76
2022/05/28 14:58:15;;;;;;;;;;;18.40;56.60;;;;;;4740772;30;19925;-77
2022/05/28 15:00:41;;;;;;;;;;;18.50;57.10;;;;;;4774976;30;19922;-76
2022/05/28 15:03:13;;;;;;;;;;;18.50;57.00;;;;;;4758788;30;19932;-77
2022/05/28 15:05:39;;;;;;;;;;;18.50;57.10;;;;;;4774931;30;19949;-76
2022/05/28 15:08:06;;;;;;;;;;;18.60;57.10;;;;;;4758295;30;20333;-76
2022/05/28 15:10:39;;;;;;;;;;;18.60;57.20;;;;;;4774371;30;19925;-75
2022/05/28 15:13:24;;;;;;;;;;;18.70;57.40;;;;;;4774526;30;20323;-76
2022/05/28 15:15:54;;;;;;;;;;;18.60;57.90;;;;;;4775256;30;19995;-75
2022/05/28 15:18:20;;;;;;;;;;;18.70;58.10;;;;;;4758136;30;19925;-77
2022/05/28 15:20:45;;;;;;;;;;;18.70;58.40;;;;;;4743584;30;19932;-77
2022/05/28 15:23:11;;;;;;;;;;;18.70;58.90;;;;;;4759251;30;19932;-78
2022/05/28 15:25:37;;;;;;;;;;;18.70;58.90;;;;;;4758672;30;20074;-77
2022/05/28 15:28:03;;;;;;;;;;;18.70;58.90;;;;;;4757927;30;19921;-77
2022/05/28 15:30:29;;;;;;;;;;;18.80;59.10;;;;;;4758367;30;19948;-78
2022/05/28 15:32:54;;;;;;;;;;;18.80;59.40;;;;;;4773596;30;19925;-79
2022/05/28 15:38:14;;;;;;;;;;;18.80;58.70;;;;;;4773848;30;19925;-77
2022/05/28 15:40:40;;;;;;;;;;;18.70;59.00;;;;;;4758140;30;20350;-78
2022/05/28 15:43:06;;;;;;;;;;;18.70;59.20;;;;;;4773446;30;19925;-78
2022/05/28 15:45:32;;;;;;;;;;;18.70;59.10;;;;;;4773568;30;20322;-77
2022/05/28 15:47:59;;;;;;;;;;;18.80;59.30;;;;;;4773161;30;19990;-77
2022/05/28 15:50:25;;;;;;;;;;;18.80;59.50;;;;;;4773541;30;19936;-78
2022/05/28 15:52:51;;;;;;;;;;;18.80;59.50;;;;;;4773414;30;19926;-77
2022/05/28 15:55:17;;;;;;;;;;;18.80;59.30;;;;;;4773645;30;19932;-78
2022/05/28 15:57:45;;;;;;;;;;;18.70;59.40;;;;;;4769977;30;20280;-79
2022/05/28 16:00:11;;;;;;;;;;;18.80;59.00;;;;;;4754571;30;19922;-77
2022/05/28 16:02:38;;;;;;;;;;;18.80;58.30;;;;;;4772203;30;20008;-76
2022/05/28 16:05:13;;;;;;;;;;;18.80;58.50;;;;;;4773519;30;20386;-77
2022/05/28 16:07:40;;;;;;;;;;;18.80;59.20;;;;;;4742843;30;19986;-77
2022/05/28 16:10:07;;;;;;;;;;;18.80;59.70;;;;;;4773735;30;20020;-76
2022/05/28 16:12:33;;;;;;;;;;;18.80;60.40;;;;;;4772890;30;19979;-76
2022/05/28 16:14:58;;;;;;;;;;;18.80;60.60;;;;;;4773459;30;19922;-79
2022/05/28 16:17:24;;;;;;;;;;;18.80;61.00;;;;;;4758026;30;20258;-75
2022/05/28 16:19:50;;;;;;;;;;;18.80;60.80;;;;;;4773198;30;19926;-78
2022/05/28 16:22:15;;;;;;;;;;;18.80;61.10;;;;;;4772908;30;19926;-79
2022/05/28 16:24:43;;;;;;;;;;;18.90;62.40;;;;;;4773505;30;20327;-78
2022/05/28 16:27:09;;;;;;;;;;;18.90;61.90;;;;;;4770047;30;19929;-77
2022/05/28 16:29:35;;;;;;;;;;;18.90;62.00;;;;;;4757051;30;20330;-77
2022/05/28 16:32:00;;;;;;;;;;;18.90;63.10;;;;;;4772677;30;19930;-75
2022/05/28 16:34:26;;;;;;;;;;;18.90;62.70;;;;;;4772610;30;19921;-77
2022/05/28 16:36:51;;;;;;;;;;;18.90;63.30;;;;;;4772948;30;19925;-78
2022/05/28 16:39:17;;;;;;;;;;;19.00;62.90;;;;;;4772483;30;19932;-78
2022/05/28 16:41:43;;;;;;;;;;;19.00;62.60;;;;;;4757406;30;19969;-78
2022/05/28 16:44:10;;;;;;;;;;;19.00;62.80;;;;;;4772832;30;19933;-76
2022/05/28 16:46:36;;;;;;;;;;;19.00;63.20;;;;;;4772885;30;20025;-78
2022/05/28 16:49:01;;;;;;;;;;;19.00;63.30;;;;;;4772983;30;19949;-77
2022/05/28 16:51:28;;;;;;;;;;;19.00;63.60;;;;;;4772528;30;19990;-78
2022/05/28 16:53:54;;;;;;;;;;;19.00;63.20;;;;;;4772267;30;20346;-76
2022/05/28 16:56:24;;;;;;;;;;;19.00;63.60;;;;;;4756747;30;19977;-76
2022/05/28 16:58:50;;;;;;;;;;;18.90;63.50;;;;;;4773183;30;19959;-78
2022/05/28 17:01:16;;;;;;;;;;;19.00;63.50;;;;;;4772483;30;20018;-78
2022/05/28 17:03:44;;;;;;;;;;;19.00;63.30;;;;;;4756846;30;19926;-78
2022/05/28 19:28:43;;;;;;;;;;;18.60;60.50;;;;;;4812126;29;19937;-74
2022/05/28 19:31:41;;;;;;;;;;;18.60;60.40;;;;;;4801675;29;20282;-75
2022/05/28 19:34:09;;;;;;;;;;;18.60;60.20;;;;;;4802969;29;19925;-76
2022/05/28 19:36:35;;;;;;;;;;;18.60;60.10;;;;;;4809357;29;19921;-75
2022/05/28 19:39:00;;;;;;;;;;;18.50;59.90;;;;;;4809893;29;19935;-73
2022/05/28 19:41:28;;;;;;;;;;;18.50;59.90;;;;;;4810168;29;19960;-74
2022/05/28 19:43:56;;;;;;;;;;;18.50;59.80;;;;;;4809727;29;19925;-75
2022/05/28 19:46:22;;;;;;;;;;;18.50;59.40;;;;;;4795855;29;20256;-75
2022/05/28 19:48:48;;;;;;;;;;;18.40;59.10;;;;;;4826350;29;19935;-75
2022/05/28 19:51:14;;;;;;;;;;;18.30;58.90;;;;;;4796873;29;19935;-77
2022/05/28 19:53:40;;;;;;;;;;;18.20;58.80;;;;;;4828049;29;19993;-76
2022/05/28 19:56:06;;;;;;;;;;;18.10;58.80;;;;;;4813744;29;19925;-75
2022/05/28 19:58:31;;;;;;;;;;;18.00;58.80;;;;;;4809902;29;19925;-74
2022/05/28 20:00:57;;;;;;;;;;;18.00;58.90;;;;;;4810523;29;19933;-75
2022/05/28 20:03:24;;;;;;;;;;;18.00;59.00;;;;;;4827170;29;20011;-76
2022/05/28 20:05:52;;;;;;;;;;;17.90;58.90;;;;;;4827797;29;19964;-76
2022/05/28 20:08:18;;;;;;;;;;;17.90;58.90;;;;;;4812055;29;19924;-74
2022/05/28 20:10:44;;;;;;;;;;;17.80;58.90;;;;;;4827430;29;19925;-76
2022/05/28 20:13:10;;;;;;;;;;;17.80;58.80;;;;;;4810998;29;19936;-74
2022/05/28 20:15:35;;;;;;;;;;;17.80;58.90;;;;;;4827199;29;19925;-74
2022/05/28 20:18:01;;;;;;;;;;;17.70;58.80;;;;;;4827619;29;19935;-75
2022/05/28 20:20:27;;;;;;;;;;;17.70;58.90;;;;;;4827588;29;20317;-75
2022/05/28 20:22:53;;;;;;;;;;;17.70;58.90;;;;;;4825592;29;19925;-75
2022/05/28 20:25:19;;;;;;;;;;;17.70;58.90;;;;;;4809273;29;19993;-72
2022/05/28 20:27:45;;;;;;;;;;;17.60;58.90;;;;;;4808498;29;20328;-74
2022/05/28 20:30:12;;;;;;;;;;;17.60;58.90;;;;;;4793148;29;19925;-73
2022/05/28 20:32:39;;;;;;;;;;;17.50;58.90;;;;;;4809172;29;19928;-73
2022/05/28 20:35:07;;;;;;;;;;;17.50;58.90;;;;;;4792911;29;19971;-74
2022/05/28 20:37:32;;;;;;;;;;;17.50;59.00;;;;;;4805855;29;19921;-76
2022/05/28 20:39:58;;;;;;;;;;;17.50;59.00;;;;;;4778242;29;19924;-76
2022/05/28 20:42:23;;;;;;;;;;;17.50;59.20;;;;;;4808949;29;19989;-72
2022/05/28 20:44:49;;;;;;;;;;;17.40;59.20;;;;;;4808737;29;20252;-72
2022/05/28 20:47:15;;;;;;;;;;;17.40;59.20;;;;;;4813978;29;19929;-78
2022/05/28 20:49:42;;;;;;;;;;;17.40;59.60;;;;;;4808732;29;20337;-76
2022/05/28 20:52:08;;;;;;;;;;;17.40;59.50;;;;;;4808655;29;19957;-77
